Pagrindinis puslapis
METAR-TAF:

METAR-TAF

Oro uostai :

Elim, Aliaska, Jungtinės Amerikos Valstijos

platuma: 64-36-54N, ilguma: 162-16-14W, Aukštis: 49 m

Dabartinis oras

Ataskaita buvo paskelbta 56 minutes, ne 19:56 UTC
Vėjas 18 kt iš Šiaurės/Šiaurės Rytų su gūsio iki 37 kt
Temperatūra 7°C
Drėgmė 66%
Slėgis 1001 hPa
Matomumas: 16.1 km
Giedras dangus

METAR: PFEL 301956Z AUTO 02018G37KT 10SM CLR 07/01 A2956 RMK AO2 PK WND 02037/1950 SLP012 T00670006

Laikas: 12:52 (20:52 UTC)


TAF: trūkstamas

Orai ataskaitas ir orų prognozės (METAR, TAF).

turimą stotys yra geltonos ir raudonos taškus žemėlapyje.

Perkelti pele per norėdami pamatyti stoties vardą.

Tada spustelėkite, norėdami matyti oro stebėjimo ir prognozės.

Norėdami pakeisti žemėlapį: spustelėkite ant žalios mygtukų su juodo kryžiaus žemyn,; žalią mygtuką su brūkšneliu, jei norite nutolinti; arba žalių rodyklių gretimoms žemėlapius.


METAR-TAF: